Time;durP1;ratioP1;P1;durP2;ratioP2;P2;SDS_P1;SDS_P2;PMS_P1;PMS_P2;Temp;Humidity;BMP_temperature;BMP_pressure;BME280_temperature;BME280_humidity;BME280_pressure;Samples;Min_cycle;Max_cycle;Signal;HPM_P1;HPM_P2
2021/11/21 00:00:11;;;;;;;40.90;17.45;;;;;;;;;;5034874;28;20058;-81
2021/11/21 00:02:38;;;;;;;39.92;17.20;;;;;;;;;;5034511;28;20130;-81
2021/11/21 00:05:06;;;;;;;43.28;18.08;;;;;;;;;;5033693;28;20073;-80
2021/11/21 00:07:33;;;;;;;36.40;15.23;;;;;;;;;;5033019;28;20050;-81
2021/11/21 00:10:01;;;;;;;36.10;15.85;;;;;;;;;;5033241;28;20050;-80
2021/11/21 00:12:28;;;;;;;41.22;16.55;;;;;;;;;;5033568;28;20052;-82
2021/11/21 00:14:56;;;;;;;33.25;15.18;;;;;;;;;;5033527;28;20132;-81
2021/11/21 00:17:22;;;;;;;36.35;15.65;;;;;;;;;;5034549;28;20452;-81
2021/11/21 00:19:49;;;;;;;33.83;14.77;;;;;;;;;;5034430;28;20041;-79
2021/11/21 00:22:16;;;;;;;33.53;14.68;;;;;;;;;;5033369;28;20107;-80
2021/11/21 00:24:44;;;;;;;35.33;15.15;;;;;;;;;;5035311;28;20045;-79
2021/11/21 00:27:12;;;;;;;38.17;16.33;;;;;;;;;;5034774;28;20057;-80
2021/11/21 00:29:39;;;;;;;32.33;14.80;;;;;;;;;;5033520;28;20483;-81
2021/11/21 00:32:08;;;;;;;38.42;16.83;;;;;;;;;;5027824;28;20164;-79
2021/11/21 00:34:35;;;;;;;37.97;15.77;;;;;;;;;;5026565;28;20057;-79
2021/11/21 00:37:02;;;;;;;33.95;15.07;;;;;;;;;;5024536;28;20045;-79
2021/11/21 00:39:29;;;;;;;36.83;15.27;;;;;;;;;;5023896;28;20061;-82
2021/11/21 00:41:56;;;;;;;38.60;16.15;;;;;;;;;;5023669;28;20104;-81
2021/11/21 00:44:24;;;;;;;36.53;15.32;;;;;;;;;;5023790;28;20060;-81
2021/11/21 00:46:51;;;;;;;39.85;16.48;;;;;;;;;;5023506;28;20037;-82
2021/11/21 00:49:20;;;;;;;33.75;14.70;;;;;;;;;;5021638;28;20433;-80
2021/11/21 00:51:48;;;;;;;33.95;16.50;;;;;;;;;;5022955;28;20503;-82
2021/11/21 00:54:25;;;;;;;34.45;15.13;;;;;;;;;;5028784;28;20069;-80
2021/11/21 00:56:52;;;;;;;37.60;16.33;;;;;;;;;;5029903;28;20052;-80
2021/11/21 00:59:20;;;;;;;30.05;14.18;;;;;;;;;;5024197;28;20260;-81
2021/11/21 01:01:48;;;;;;;37.08;14.77;;;;;;;;;;5023013;28;20119;-81
2021/11/21 01:04:15;;;;;;;35.00;14.80;;;;;;;;;;5026167;28;20069;-79
2021/11/21 01:06:43;;;;;;;33.63;15.43;;;;;;;;;;5031556;28;20571;-81
2021/11/21 01:09:11;;;;;;;32.20;14.13;;;;;;;;;;5031019;28;20037;-80
2021/11/21 01:11:39;;;;;;;31.88;15.50;;;;;;;;;;5031640;28;20668;-80
2021/11/21 01:14:06;;;;;;;31.63;13.35;;;;;;;;;;5030461;28;20045;-80
2021/11/21 01:16:34;;;;;;;27.63;13.60;;;;;;;;;;5030267;28;20053;-81
2021/11/21 01:19:01;;;;;;;31.50;15.05;;;;;;;;;;5031101;28;20041;-80
2021/11/21 01:21:29;;;;;;;38.90;13.98;;;;;;;;;;5031801;28;20109;-80
2021/11/21 01:23:58;;;;;;;29.27;15.02;;;;;;;;;;5032100;28;20053;-81
2021/11/21 01:26:25;;;;;;;29.42;13.52;;;;;;;;;;5030268;28;20038;-81
2021/11/21 01:28:52;;;;;;;33.72;15.27;;;;;;;;;;5030637;28;20053;-81
2021/11/21 01:31:19;;;;;;;33.38;15.30;;;;;;;;;;5030828;28;20061;-80
2021/11/21 01:33:46;;;;;;;30.02;13.50;;;;;;;;;;5021817;28;20049;-81
2021/11/21 01:36:13;;;;;;;33.42;15.10;;;;;;;;;;5020613;28;20050;-81
2021/11/21 01:38:41;;;;;;;29.48;13.32;;;;;;;;;;5020890;28;20049;-82
2021/11/21 01:41:09;;;;;;;32.40;14.65;;;;;;;;;;5027586;28;20112;-81
2021/11/21 01:43:36;;;;;;;32.08;13.65;;;;;;;;;;5026492;28;20085;-80
2021/11/21 01:46:03;;;;;;;28.77;13.00;;;;;;;;;;5026338;28;20068;-79
2021/11/21 01:48:30;;;;;;;27.83;12.25;;;;;;;;;;5026263;28;20054;-81
2021/11/21 01:51:01;;;;;;;25.63;11.73;;;;;;;;;;5024345;28;20103;-81
2021/11/21 01:53:28;;;;;;;27.35;12.10;;;;;;;;;;5024808;28;20052;-79
2021/11/21 01:55:54;;;;;;;22.73;10.48;;;;;;;;;;5026190;28;20053;-81
2021/11/21 01:58:23;;;;;;;21.85;10.73;;;;;;;;;;5024855;28;20053;-81
2021/11/21 02:00:50;;;;;;;24.35;10.77;;;;;;;;;;5025388;28;20108;-81
2021/11/21 02:03:18;;;;;;;21.40;11.23;;;;;;;;;;5025623;28;20053;-81
2021/11/21 02:05:44;;;;;;;23.13;11.18;;;;;;;;;;5024535;28;20198;-80
2021/11/21 02:08:11;;;;;;;27.27;12.23;;;;;;;;;;5024470;28;20131;-79
2021/11/21 02:10:39;;;;;;;26.77;11.98;;;;;;;;;;5029099;28;20483;-79
2021/11/21 02:13:08;;;;;;;29.52;11.88;;;;;;;;;;5025739;28;20076;-79
2021/11/21 02:15:37;;;;;;;29.10;12.52;;;;;;;;;;5024128;28;20046;-82
2021/11/21 02:18:05;;;;;;;31.45;13.82;;;;;;;;;;5024330;28;20049;-80
2021/11/21 02:20:47;;;;;;;26.48;10.82;;;;;;;;;;5024889;28;20060;-79
2021/11/21 02:23:14;;;;;;;28.60;11.70;;;;;;;;;;5027347;28;20076;-80
2021/11/21 02:25:41;;;;;;;28.23;12.90;;;;;;;;;;5038798;28;20046;-80
2021/11/21 02:28:08;;;;;;;25.83;12.50;;;;;;;;;;5037598;28;20037;-79
2021/11/21 02:30:36;;;;;;;28.85;11.90;;;;;;;;;;5038230;28;20037;-79
2021/11/21 02:33:09;;;;;;;28.50;12.68;;;;;;;;;;5035038;28;20038;-80
2021/11/21 02:35:38;;;;;;;30.60;12.38;;;;;;;;;;5031446;28;20144;-80
2021/11/21 02:38:07;;;;;;;27.48;12.38;;;;;;;;;;5028567;28;20079;-80
2021/11/21 02:40:34;;;;;;;26.58;12.40;;;;;;;;;;5025973;28;20049;-79
2021/11/21 02:43:01;;;;;;;23.75;10.98;;;;;;;;;;5031039;28;20045;-79
2021/11/21 02:45:28;;;;;;;22.85;10.35;;;;;;;;;;5028032;28;20058;-79
2021/11/21 02:47:56;;;;;;;28.08;11.55;;;;;;;;;;5035713;28;20049;-81
2021/11/21 02:50:25;;;;;;;48.15;23.17;;;;;;;;;;5037696;28;20037;-78
2021/11/21 02:52:52;;;;;;;43.53;19.52;;;;;;;;;;5034540;28;20057;-82
2021/11/21 02:55:26;;;;;;;27.52;12.63;;;;;;;;;;5030640;28;20119;-82
2021/11/21 02:57:53;;;;;;;24.75;10.85;;;;;;;;;;5029939;28;20057;-82
2021/11/21 03:00:20;;;;;;;25.75;11.57;;;;;;;;;;5028386;28;20053;-82
2021/11/21 03:02:48;;;;;;;18.83;10.00;;;;;;;;;;5025050;28;20045;-82
2021/11/21 03:05:17;;;;;;;26.75;11.15;;;;;;;;;;5023100;28;20045;-82
2021/11/21 03:07:45;;;;;;;26.10;11.20;;;;;;;;;;5023680;28;20049;-82
2021/11/21 03:10:14;;;;;;;23.35;11.57;;;;;;;;;;5022776;28;20045;-82
2021/11/21 03:12:43;;;;;;;24.95;12.38;;;;;;;;;;5022263;28;20045;-82
2021/11/21 03:15:10;;;;;;;27.02;11.57;;;;;;;;;;5021808;28;20169;-79
2021/11/21 03:17:39;;;;;;;25.83;11.30;;;;;;;;;;5023976;28;20054;-80
2021/11/21 03:20:07;;;;;;;27.38;12.07;;;;;;;;;;5027588;28;20120;-81
2021/11/21 03:22:34;;;;;;;23.38;11.05;;;;;;;;;;5029496;28;20054;-80
2021/11/21 03:25:01;;;;;;;30.17;13.38;;;;;;;;;;5022186;28;20050;-80
2021/11/21 03:27:27;;;;;;;28.77;11.40;;;;;;;;;;5021657;28;20038;-80
2021/11/21 03:29:56;;;;;;;30.08;11.65;;;;;;;;;;5028737;28;20046;-79
2021/11/21 03:32:23;;;;;;;29.52;12.20;;;;;;;;;;5029919;28;20076;-82
2021/11/21 03:34:50;;;;;;;31.95;11.80;;;;;;;;;;5023612;28;20066;-81
2021/11/21 03:37:18;;;;;;;25.85;11.48;;;;;;;;;;5021347;28;20567;-82
2021/11/21 03:39:44;;;;;;;23.67;10.85;;;;;;;;;;5023874;28;20060;-83
2021/11/21 03:42:11;;;;;;;31.85;11.85;;;;;;;;;;5020856;28;20052;-82
2021/11/21 03:44:38;;;;;;;29.10;11.63;;;;;;;;;;5020237;28;20081;-81
2021/11/21 03:47:06;;;;;;;30.40;12.95;;;;;;;;;;5021320;28;20045;-81
2021/11/21 03:49:34;;;;;;;30.92;12.43;;;;;;;;;;5021377;28;20042;-81
2021/11/21 03:52:00;;;;;;;29.40;11.68;;;;;;;;;;5021133;28;20046;-82
2021/11/21 03:54:27;;;;;;;21.40;10.25;;;;;;;;;;5020724;28;20050;-82
2021/11/21 03:56:54;;;;;;;25.75;11.23;;;;;;;;;;5020713;28;20049;-82
2021/11/21 03:59:21;;;;;;;23.65;10.05;;;;;;;;;;5020914;28;20041;-82
2021/11/21 04:01:49;;;;;;;22.00;9.82;;;;;;;;;;5021550;28;20053;-82
2021/11/21 04:04:18;;;;;;;22.98;10.05;;;;;;;;;;5021428;28;20046;-82
2021/11/21 04:06:45;;;;;;;21.30;10.00;;;;;;;;;;5023957;28;20045;-81
2021/11/21 04:09:12;;;;;;;19.55;9.23;;;;;;;;;;5024412;28;20042;-81
2021/11/21 04:11:38;;;;;;;21.65;9.10;;;;;;;;;;5024755;28;20559;-81
2021/11/21 04:14:05;;;;;;;16.27;8.35;;;;;;;;;;5020627;28;20048;-81
2021/11/21 04:16:32;;;;;;;16.83;8.32;;;;;;;;;;5019777;28;20527;-81
2021/11/21 04:18:59;;;;;;;17.00;8.70;;;;;;;;;;5020126;28;20050;-80
2021/11/21 04:21:28;;;;;;;19.50;9.13;;;;;;;;;;5020143;28;20098;-82
2021/11/21 04:23:55;;;;;;;17.88;8.30;;;;;;;;;;5018732;28;20041;-82
2021/11/21 04:26:21;;;;;;;17.85;8.80;;;;;;;;;;5018271;28;20093;-81
2021/11/21 04:28:48;;;;;;;18.23;8.48;;;;;;;;;;5018424;28;20492;-81
2021/11/21 04:31:15;;;;;;;14.90;7.80;;;;;;;;;;5017869;28;20069;-81
2021/11/21 04:33:42;;;;;;;21.55;9.00;;;;;;;;;;5018688;28;20057;-82
2021/11/21 04:36:09;;;;;;;20.33;7.82;;;;;;;;;;5017896;28;20050;-82
2021/11/21 04:38:37;;;;;;;20.90;8.18;;;;;;;;;;5018366;28;20054;-79
2021/11/21 04:41:04;;;;;;;17.42;7.82;;;;;;;;;;5017988;28;20057;-80
2021/11/21 04:43:31;;;;;;;17.42;7.85;;;;;;;;;;5019377;28;20049;-81
2021/11/21 04:45:58;;;;;;;27.77;8.85;;;;;;;;;;5019324;28;20041;-80
2021/11/21 04:48:26;;;;;;;20.08;9.25;;;;;;;;;;5017864;28;20050;-80
2021/11/21 04:50:54;;;;;;;19.63;8.95;;;;;;;;;;5018756;28;20057;-83
2021/11/21 04:53:24;;;;;;;27.88;9.65;;;;;;;;;;5018790;28;20042;-81
2021/11/21 04:55:52;;;;;;;20.77;9.00;;;;;;;;;;5018872;28;20054;-81
2021/11/21 04:58:19;;;;;;;22.63;9.98;;;;;;;;;;5035941;22;21210;-77
2021/11/21 05:00:46;;;;;;;21.95;10.18;;;;;;;;;;5075590;28;20052;-77
2021/11/21 05:03:13;;;;;;;27.17;10.38;;;;;;;;;;5075541;28;20403;-77
2021/11/21 05:05:40;;;;;;;24.55;11.30;;;;;;;;;;5075362;28;20137;-77
2021/11/21 05:08:07;;;;;;;24.05;9.27;;;;;;;;;;5072508;28;20196;-77
2021/11/21 05:10:34;;;;;;;20.85;9.18;;;;;;;;;;5055034;28;20402;-77
2021/11/21 05:13:03;;;;;;;34.17;9.70;;;;;;;;;;5056299;28;20057;-77
2021/11/21 05:15:30;;;;;;;26.95;9.77;;;;;;;;;;5053570;28;20053;-77
2021/11/21 05:17:57;;;;;;;19.45;8.68;;;;;;;;;;5055284;28;20092;-77
2021/11/21 05:20:24;;;;;;;21.70;9.35;;;;;;;;;;5055475;28;20049;-77
2021/11/21 05:22:51;;;;;;;18.73;9.20;;;;;;;;;;5055932;28;20060;-76
2021/11/21 05:25:18;;;;;;;17.70;8.38;;;;;;;;;;5056270;28;20094;-76
2021/11/21 05:27:47;;;;;;;13.65;7.55;;;;;;;;;;5055633;28;20045;-77
2021/11/21 05:30:19;;;;;;;15.77;7.18;;;;;;;;;;5056141;28;20474;-77
2021/11/21 05:32:46;;;;;;;16.83;7.57;;;;;;;;;;5056586;28;20049;-78
2021/11/21 05:35:14;;;;;;;14.73;8.00;;;;;;;;;;5059101;28;20658;-77
2021/11/21 05:37:41;;;;;;;15.88;7.57;;;;;;;;;;5059437;28;20091;-77
2021/11/21 05:40:11;;;;;;;15.30;7.78;;;;;;;;;;5058772;28;20687;-77
2021/11/21 05:42:38;;;;;;;14.90;7.22;;;;;;;;;;5059215;28;20107;-77
2021/11/21 05:45:06;;;;;;;16.17;8.00;;;;;;;;;;5058820;28;20056;-78
2021/11/21 05:47:34;;;;;;;18.70;8.23;;;;;;;;;;5055469;28;20048;-77
2021/11/21 05:50:01;;;;;;;12.75;7.32;;;;;;;;;;5055655;28;20053;-77
2021/11/21 05:52:28;;;;;;;16.88;8.30;;;;;;;;;;5055395;28;20107;-76
2021/11/21 05:54:55;;;;;;;14.15;7.53;;;;;;;;;;5054716;28;20105;-76
2021/11/21 05:57:22;;;;;;;15.95;7.82;;;;;;;;;;5054922;28;20049;-76
2021/11/21 05:59:49;;;;;;;14.55;7.50;;;;;;;;;;5054937;28;20109;-75
2021/11/21 06:02:16;;;;;;;13.73;7.55;;;;;;;;;;5054816;28;20057;-77
2021/11/21 06:04:44;;;;;;;17.95;10.05;;;;;;;;;;5054805;28;20127;-77
2021/11/21 06:07:11;;;;;;;20.25;9.13;;;;;;;;;;5054868;28;20061;-76
2021/11/21 06:09:38;;;;;;;16.55;8.80;;;;;;;;;;5055593;28;20044;-76
2021/11/21 06:12:05;;;;;;;19.27;8.82;;;;;;;;;;5068547;28;20037;-76
2021/11/21 06:14:32;;;;;;;20.13;9.98;;;;;;;;;;5058187;28;20044;-78
2021/11/21 06:16:59;;;;;;;18.75;9.02;;;;;;;;;;5054431;28;20045;-75
2021/11/21 06:19:26;;;;;;;18.42;9.50;;;;;;;;;;5054467;28;20041;-77
2021/11/21 06:21:54;;;;;;;19.67;10.43;;;;;;;;;;5054878;28;20048;-76
2021/11/21 06:24:21;;;;;;;20.00;9.00;;;;;;;;;;5054780;28;20118;-76
2021/11/21 06:26:48;;;;;;;19.33;9.60;;;;;;;;;;5054507;28;20040;-76
2021/11/21 06:29:15;;;;;;;21.25;10.27;;;;;;;;;;5062641;28;20057;-76
2021/11/21 06:31:42;;;;;;;19.92;9.85;;;;;;;;;;5078862;28;20045;-75
2021/11/21 06:34:09;;;;;;;21.33;10.57;;;;;;;;;;5068428;28;20056;-76
2021/11/21 06:36:38;;;;;;;18.20;9.25;;;;;;;;;;5058959;28;20503;-77
2021/11/21 06:39:07;;;;;;;18.65;8.80;;;;;;;;;;5058416;28;20460;-77
2021/11/21 06:41:35;;;;;;;18.55;9.63;;;;;;;;;;5055560;28;20056;-77
2021/11/21 06:44:02;;;;;;;18.90;8.88;;;;;;;;;;5058643;28;20443;-78
2021/11/21 06:46:29;;;;;;;17.55;7.85;;;;;;;;;;5058673;28;20142;-77
2021/11/21 06:48:55;;;;;;;20.98;8.75;;;;;;;;;;5057499;28;20045;-76
2021/11/21 06:51:22;;;;;;;17.75;9.13;;;;;;;;;;5058543;28;20041;-77
2021/11/21 06:53:49;;;;;;;17.98;8.88;;;;;;;;;;5057925;28;20054;-77
2021/11/21 06:56:18;;;;;;;15.23;7.88;;;;;;;;;;5057741;28;20045;-77
2021/11/21 06:58:46;;;;;;;20.35;9.45;;;;;;;;;;5060925;28;20076;-77
2021/11/21 07:01:13;;;;;;;18.63;8.55;;;;;;;;;;5062059;28;20496;-78
2021/11/21 07:03:40;;;;;;;24.88;10.23;;;;;;;;;;5062394;28;20074;-77
2021/11/21 07:06:07;;;;;;;20.30;9.38;;;;;;;;;;5062048;28;20071;-77
2021/11/21 07:08:34;;;;;;;20.42;10.32;;;;;;;;;;5063525;28;20432;-77
2021/11/21 07:11:01;;;;;;;23.25;10.10;;;;;;;;;;5062454;28;20045;-77
2021/11/21 07:13:29;;;;;;;20.40;9.25;;;;;;;;;;5060908;28;20044;-77
2021/11/21 07:15:56;;;;;;;18.30;8.82;;;;;;;;;;5062554;28;20037;-77
2021/11/21 07:18:23;;;;;;;13.73;8.13;;;;;;;;;;5064084;28;20149;-77
2021/11/21 07:20:50;;;;;;;15.13;8.00;;;;;;;;;;5062911;28;21037;-77
2021/11/21 07:23:20;;;;;;;15.65;7.85;;;;;;;;;;5064026;28;20063;-78
2021/11/21 07:25:47;;;;;;;16.48;8.18;;;;;;;;;;5057452;28;20144;-76
2021/11/21 07:28:14;;;;;;;16.80;8.13;;;;;;;;;;5057881;28;20190;-76
2021/11/21 07:30:42;;;;;;;14.35;7.78;;;;;;;;;;5057435;28;20052;-76
2021/11/21 07:33:11;;;;;;;14.70;8.00;;;;;;;;;;5062254;28;20056;-77
2021/11/21 07:35:38;;;;;;;14.77;7.45;;;;;;;;;;5058990;28;20048;-76
2021/11/21 07:38:05;;;;;;;19.42;9.10;;;;;;;;;;5058470;28;20045;-77
2021/11/21 07:40:32;;;;;;;16.83;7.95;;;;;;;;;;5057533;28;20636;-76
2021/11/21 07:42:59;;;;;;;16.33;9.20;;;;;;;;;;5057831;28;20040;-76
2021/11/21 07:45:25;;;;;;;15.55;8.85;;;;;;;;;;5057453;28;20056;-77
2021/11/21 07:47:54;;;;;;;16.17;8.30;;;;;;;;;;5057623;28;20503;-77
2021/11/21 07:50:21;;;;;;;20.58;8.52;;;;;;;;;;5057872;28;20053;-78
2021/11/21 07:52:49;;;;;;;15.05;7.32;;;;;;;;;;5057980;28;20094;-78
2021/11/21 07:55:16;;;;;;;17.30;8.90;;;;;;;;;;5056870;28;20045;-78
2021/11/21 07:57:43;;;;;;;18.60;8.35;;;;;;;;;;5056793;28;20049;-78
2021/11/21 08:00:13;;;;;;;14.60;8.50;;;;;;;;;;5057111;28;20044;-78
2021/11/21 08:02:40;;;;;;;16.40;8.07;;;;;;;;;;5057517;28;20496;-77
2021/11/21 08:05:09;;;;;;;19.38;9.50;;;;;;;;;;5056530;28;20079;-77
2021/11/21 08:07:36;;;;;;;14.80;8.10;;;;;;;;;;5057990;28;20056;-79
2021/11/21 08:10:04;;;;;;;16.42;8.80;;;;;;;;;;5056931;28;20067;-77
2021/11/21 08:12:31;;;;;;;19.38;9.13;;;;;;;;;;5055979;28;20103;-78
2021/11/21 08:14:59;;;;;;;16.73;8.65;;;;;;;;;;5056881;28;20098;-77
2021/11/21 08:17:26;;;;;;;15.77;8.50;;;;;;;;;;5058134;28;20045;-77
2021/11/21 08:19:52;;;;;;;18.90;9.75;;;;;;;;;;5057936;28;20052;-78
2021/11/21 08:22:21;;;;;;;17.88;9.77;;;;;;;;;;5057204;28;20489;-77
2021/11/21 08:24:48;;;;;;;20.88;9.43;;;;;;;;;;5056686;28;20049;-79
2021/11/21 08:27:15;;;;;;;16.85;8.82;;;;;;;;;;5057611;28;20512;-77
2021/11/21 08:29:42;;;;;;;15.73;8.63;;;;;;;;;;5058391;28;20044;-79
2021/11/21 08:32:10;;;;;;;13.50;8.90;;;;;;;;;;5063355;28;20053;-78
2021/11/21 08:34:37;;;;;;;18.48;9.90;;;;;;;;;;5069561;28;20044;-77
2021/11/21 08:37:04;;;;;;;20.27;10.88;;;;;;;;;;5063608;28;20045;-77
2021/11/21 08:39:33;;;;;;;17.42;10.18;;;;;;;;;;5062736;28;20059;-77
2021/11/21 08:42:00;;;;;;;19.45;11.15;;;;;;;;;;5061149;28;20040;-77
2021/11/21 08:44:27;;;;;;;17.35;10.32;;;;;;;;;;5059355;28;20098;-78
2021/11/21 08:46:54;;;;;;;20.25;9.57;;;;;;;;;;5057323;28;20052;-77
2021/11/21 08:49:20;;;;;;;16.35;9.50;;;;;;;;;;5056648;28;20337;-77
2021/11/21 08:51:48;;;;;;;14.88;8.68;;;;;;;;;;5055763;28;20053;-78
2021/11/21 08:54:16;;;;;;;16.48;9.55;;;;;;;;;;5056531;28;20136;-78
2021/11/21 08:56:45;;;;;;;15.63;8.60;;;;;;;;;;5055658;28;20568;-78
2021/11/21 08:59:12;;;;;;;19.55;9.38;;;;;;;;;;5055453;28;20095;-78
2021/11/21 09:01:39;;;;;;;18.85;9.82;;;;;;;;;;5056602;28;20056;-78
2021/11/21 09:04:06;;;;;;;16.77;10.00;;;;;;;;;;5058523;28;20049;-78
2021/11/21 09:06:34;;;;;;;20.65;10.77;;;;;;;;;;5055626;28;20723;-77
2021/11/21 09:09:01;;;;;;;17.40;9.63;;;;;;;;;;5057257;28;20059;-77
2021/11/21 09:11:28;;;;;;;19.83;9.77;;;;;;;;;;5057103;28;20052;-77
2021/11/21 09:13:56;;;;;;;22.38;10.13;;;;;;;;;;5067424;28;20041;-76
2021/11/21 09:16:23;;;;;;;19.30;10.65;;;;;;;;;;5075270;28;20090;-77
2021/11/21 09:18:50;;;;;;;19.20;10.90;;;;;;;;;;5061879;28;20052;-78
2021/11/21 09:21:17;;;;;;;24.67;10.57;;;;;;;;;;5064819;28;20051;-80
2021/11/21 09:23:44;;;;;;;20.60;10.45;;;;;;;;;;5060898;28;20041;-80
2021/11/21 09:26:11;;;;;;;19.52;10.20;;;;;;;;;;5058988;28;20045;-76
2021/11/21 09:28:38;;;;;;;20.25;10.75;;;;;;;;;;5060874;28;20040;-78
2021/11/21 09:31:07;;;;;;;20.70;11.30;;;;;;;;;;5069263;28;20075;-79
2021/11/21 09:33:37;;;;;;;21.00;12.20;;;;;;;;;;5067589;28;20096;-78
2021/11/21 09:36:06;;;;;;;20.75;11.13;;;;;;;;;;5059676;28;20053;-81
2021/11/21 09:38:35;;;;;;;19.73;11.18;;;;;;;;;;5061001;28;20052;-80
2021/11/21 09:41:02;;;;;;;22.30;11.52;;;;;;;;;;5062196;28;20075;-80
2021/11/21 09:43:30;;;;;;;21.42;10.80;;;;;;;;;;5060806;28;20053;-79
2021/11/21 09:45:58;;;;;;;21.65;11.43;;;;;;;;;;5064491;28;20079;-78
2021/11/21 09:48:30;;;;;;;21.15;10.90;;;;;;;;;;5059554;28;20107;-81
2021/11/21 09:50:57;;;;;;;21.30;11.27;;;;;;;;;;5058634;28;20056;-78
2021/11/21 09:53:25;;;;;;;22.95;11.95;;;;;;;;;;5058243;28;20045;-78
2021/11/21 09:55:52;;;;;;;21.67;10.90;;;;;;;;;;5057195;28;20069;-79
2021/11/21 09:58:19;;;;;;;21.95;12.02;;;;;;;;;;5059943;28;20044;-79
2021/11/21 10:00:46;;;;;;;20.30;11.50;;;;;;;;;;5064442;28;20341;-79
2021/11/21 10:03:18;;;;;;;21.00;11.77;;;;;;;;;;5063557;28;20052;-78
2021/11/21 10:05:50;;;;;;;25.40;13.05;;;;;;;;;;5061658;28;20207;-78
2021/11/21 10:08:18;;;;;;;20.98;11.00;;;;;;;;;;5061794;28;20519;-79
2021/11/21 10:10:47;;;;;;;22.58;11.25;;;;;;;;;;5062873;28;20056;-79
2021/11/21 10:13:34;;;;;;;25.17;12.07;;;;;;;;;;5067171;28;20052;-79
2021/11/21 10:16:19;;;;;;;20.20;10.35;;;;;;;;;;5073864;28;20088;-80
2021/11/21 10:18:47;;;;;;;20.02;10.85;;;;;;;;;;5074459;28;20045;-79
2021/11/21 10:21:16;;;;;;;21.75;11.30;;;;;;;;;;5072974;28;20528;-80
2021/11/21 10:23:43;;;;;;;25.63;12.30;;;;;;;;;;5068701;28;20102;-80
2021/11/21 10:26:20;;;;;;;23.75;10.95;;;;;;;;;;5065981;28;20590;-79
2021/11/21 10:28:47;;;;;;;19.17;10.13;;;;;;;;;;5064708;28;20144;-78
2021/11/21 10:31:16;;;;;;;29.55;15.55;;;;;;;;;;5068605;28;20075;-79
2021/11/21 10:33:46;;;;;;;23.90;13.75;;;;;;;;;;5073044;28;20037;-79
2021/11/21 10:36:19;;;;;;;23.45;14.18;;;;;;;;;;5081236;28;20090;-81
2021/11/21 10:38:48;;;;;;;22.52;12.10;;;;;;;;;;5066246;28;20049;-78
2021/11/21 10:41:19;;;;;;;23.15;12.82;;;;;;;;;;5064417;28;20102;-79
2021/11/21 10:43:50;;;;;;;21.33;12.35;;;;;;;;;;5064522;28;20511;-78
2021/11/21 10:46:25;;;;;;;23.40;12.80;;;;;;;;;;5064327;28;20056;-80
2021/11/21 10:48:52;;;;;;;24.02;13.32;;;;;;;;;;5072580;28;20049;-79
2021/11/21 10:51:21;;;;;;;28.13;14.15;;;;;;;;;;5069157;28;20052;-80
2021/11/21 10:53:48;;;;;;;23.48;11.85;;;;;;;;;;5065131;28;20049;-79
2021/11/21 10:56:15;;;;;;;22.70;12.77;;;;;;;;;;5063568;28;20414;-78
2021/11/21 10:58:46;;;;;;;25.05;12.55;;;;;;;;;;5059453;28;20052;-81
2021/11/21 11:01:19;;;;;;;;;;;;;;;;;;5061335;28;20048;-80
2021/11/21 11:04:07;;;;;;;25.85;13.10;;;;;;;;;;5073000;28;19920;-80
2021/11/21 11:06:36;;;;;;;24.13;12.48;;;;;;;;;;5072015;28;20056;-80
2021/11/21 11:09:20;;;;;;;26.23;13.13;;;;;;;;;;5076336;28;20063;-79
2021/11/21 11:11:48;;;;;;;23.52;12.52;;;;;;;;;;5078297;28;20048;-80
2021/11/21 11:14:19;;;;;;;26.20;13.05;;;;;;;;;;5074212;28;20411;-79
2021/11/21 11:16:51;;;;;;;27.00;12.75;;;;;;;;;;5062072;28;20106;-80
2021/11/21 11:19:19;;;;;;;26.88;14.07;;;;;;;;;;5066636;28;20122;-79
2021/11/21 11:21:51;;;;;;;31.08;15.45;;;;;;;;;;5060913;28;20427;-79
2021/11/21 11:24:22;;;;;;;31.95;15.63;;;;;;;;;;5061528;28;20599;-79
2021/11/21 11:26:57;;;;;;;32.33;15.18;;;;;;;;;;5063807;28;20056;-79
2021/11/21 11:29:29;;;;;;;35.00;15.30;;;;;;;;;;5059863;28;20487;-79
2021/11/21 11:32:20;;;;;;;40.58;17.42;;;;;;;;;;5064896;28;20800;-78
2021/11/21 11:34:47;;;;;;;35.15;17.45;;;;;;;;;;5062539;28;20161;-79
2021/11/21 11:37:16;;;;;;;34.83;15.32;;;;;;;;;;5064110;28;20083;-77
2021/11/21 11:39:44;;;;;;;37.92;17.27;;;;;;;;;;5059667;28;20095;-79
2021/11/21 11:42:34;;;;;;;32.10;16.27;;;;;;;;;;5066781;28;20090;-79
2021/11/21 11:45:02;;;;;;;40.95;18.23;;;;;;;;;;5065722;28;20495;-78
2021/11/21 11:47:29;;;;;;;42.15;18.63;;;;;;;;;;5059109;28;20041;-78
2021/11/21 11:49:56;;;;;;;45.70;18.77;;;;;;;;;;5066012;28;20430;-77
2021/11/21 11:52:54;;;;;;;45.78;18.23;;;;;;;;;;5065423;28;20632;-78
2021/11/21 11:55:21;;;;;;;37.10;16.83;;;;;;;;;;5063243;28;20064;-77
2021/11/21 11:57:48;;;;;;;41.55;17.60;;;;;;;;;;5076496;28;20037;-78
2021/11/21 12:00:26;;;;;;;39.38;16.77;;;;;;;;;;5077964;28;20071;-80
2021/11/21 12:02:56;;;;;;;38.97;15.68;;;;;;;;;;5066536;28;20091;-79
2021/11/21 12:05:32;;;;;;;39.05;17.63;;;;;;;;;;5065854;28;20094;-79
2021/11/21 12:08:15;;;;;;;38.35;15.65;;;;;;;;;;5064927;28;20052;-79
2021/11/21 12:10:50;;;;;;;46.35;21.38;;;;;;;;;;5067400;28;20060;-79
2021/11/21 12:13:28;;;;;;;40.35;17.42;;;;;;;;;;5071299;28;20048;-79
2021/11/21 12:16:00;;;;;;;43.63;17.80;;;;;;;;;;5075525;28;20087;-79
2021/11/21 12:18:56;;;;;;;44.22;17.30;;;;;;;;;;5073535;28;20368;-79
2021/11/21 12:21:50;;;;;;;42.30;17.50;;;;;;;;;;5076001;28;20102;-80
2021/11/21 12:24:28;;;;;;;38.60;15.95;;;;;;;;;;5080283;28;20059;-79
2021/11/21 12:26:55;;;;;;;43.13;18.85;;;;;;;;;;5078643;28;20064;-81
2021/11/21 12:29:29;;;;;;;39.88;18.10;;;;;;;;;;5078976;28;20060;-79
2021/11/21 12:31:59;;;;;;;40.67;17.23;;;;;;;;;;5078125;28;20044;-79
2021/11/21 12:34:43;;;;;;;41.80;16.90;;;;;;;;;;5073771;28;20059;-79
2021/11/21 12:37:19;;;;;;;43.28;16.10;;;;;;;;;;5078083;28;20089;-78
2021/11/21 12:39:50;;;;;;;43.70;17.80;;;;;;;;;;5078524;28;20074;-79
2021/11/21 12:42:19;;;;;;;45.17;18.20;;;;;;;;;;5078619;28;20041;-79
2021/11/21 12:44:46;;;;;;;44.00;20.63;;;;;;;;;;5079515;28;20053;-80
2021/11/21 12:47:16;;;;;;;39.83;16.63;;;;;;;;;;5080130;28;20037;-79
2021/11/21 12:49:44;;;;;;;48.45;18.27;;;;;;;;;;5079100;28;20071;-78
2021/11/21 12:52:13;;;;;;;41.78;17.75;;;;;;;;;;5080026;28;20061;-79
2021/11/21 12:54:41;;;;;;;43.47;17.13;;;;;;;;;;5079642;28;20036;-78
2021/11/21 12:57:12;;;;;;;47.80;18.95;;;;;;;;;;5079438;28;20349;-78
2021/11/21 12:59:56;;;;;;;45.50;17.85;;;;;;;;;;5080595;28;20134;-79
2021/11/21 13:02:26;;;;;;;38.88;15.70;;;;;;;;;;5074157;28;20059;-79
2021/11/21 13:04:59;;;;;;;46.03;17.60;;;;;;;;;;5065765;28;20126;-79
2021/11/21 13:07:29;;;;;;;45.60;17.77;;;;;;;;;;5068743;28;20107;-79
2021/11/21 13:10:03;;;;;;;40.28;16.40;;;;;;;;;;5065708;28;20044;-79
2021/11/21 13:12:33;;;;;;;42.70;17.00;;;;;;;;;;5076244;28;20079;-79
2021/11/21 13:15:02;;;;;;;49.92;17.70;;;;;;;;;;5075292;28;20740;-78
2021/11/21 13:17:29;;;;;;;43.22;16.10;;;;;;;;;;5078162;28;20040;-79
2021/11/21 13:20:08;;;;;;;53.22;20.95;;;;;;;;;;5068669;28;20063;-79
2021/11/21 13:22:50;;;;;;;41.75;17.63;;;;;;;;;;5064797;28;20492;-79
2021/11/21 13:25:54;;;;;;;50.90;20.20;;;;;;;;;;5067536;28;20342;-78
2021/11/21 13:28:31;;;;;;;38.45;17.02;;;;;;;;;;5060017;28;20247;-78
2021/11/21 13:31:00;;;;;;;41.13;15.68;;;;;;;;;;5063383;28;20037;-77
2021/11/21 13:33:30;;;;;;;42.60;17.13;;;;;;;;;;5064860;28;20040;-78
2021/11/21 13:36:01;;;;;;;49.92;18.65;;;;;;;;;;5064353;28;20459;-79
2021/11/21 13:38:30;;;;;;;52.42;21.23;;;;;;;;;;5071909;28;20037;-78
2021/11/21 13:40:58;;;;;;;48.35;18.02;;;;;;;;;;5067833;28;20632;-78
2021/11/21 13:43:39;;;;;;;49.88;17.60;;;;;;;;;;5064005;28;20070;-78
2021/11/21 13:46:07;;;;;;;42.20;16.40;;;;;;;;;;5066940;28;20735;-79
2021/11/21 13:48:37;;;;;;;46.63;17.85;;;;;;;;;;5067099;28;20048;-79
2021/11/21 13:51:07;;;;;;;37.25;16.98;;;;;;;;;;5068190;28;20095;-79
2021/11/21 13:53:42;;;;;;;43.13;16.90;;;;;;;;;;5068617;28;20048;-81
2021/11/21 13:56:12;;;;;;;39.00;15.85;;;;;;;;;;5068899;28;20331;-81
2021/11/21 13:58:41;;;;;;;39.33;15.73;;;;;;;;;;5066919;28;20069;-77
2021/11/21 14:01:10;;;;;;;45.38;17.88;;;;;;;;;;5067974;28;20454;-80
2021/11/21 14:03:39;;;;;;;48.65;18.30;;;;;;;;;;5067395;28;20041;-78
2021/11/21 14:06:11;;;;;;;45.65;17.83;;;;;;;;;;5066209;28;20123;-80
2021/11/21 14:08:50;;;;;;;48.78;17.42;;;;;;;;;;5069664;28;20045;-80
2021/11/21 14:11:17;;;;;;;43.72;16.58;;;;;;;;;;5070124;28;20068;-80
2021/11/21 14:13:48;;;;;;;39.72;15.63;;;;;;;;;;5063079;28;20052;-79
2021/11/21 14:16:16;;;;;;;47.38;17.77;;;;;;;;;;5064771;28;20431;-78
2021/11/21 14:18:47;;;;;;;39.97;17.40;;;;;;;;;;5064973;28;20045;-79
2021/11/21 14:21:19;;;;;;;43.03;15.63;;;;;;;;;;5064272;28;20041;-80
2021/11/21 14:23:48;;;;;;;39.03;14.35;;;;;;;;;;5063015;28;20833;-78
2021/11/21 14:26:16;;;;;;;38.40;15.43;;;;;;;;;;5064437;28;20059;-79
2021/11/21 14:28:46;;;;;;;40.17;15.27;;;;;;;;;;5062856;28;20045;-78
2021/11/21 14:31:16;;;;;;;45.47;18.50;;;;;;;;;;5063817;28;20044;-79